sensor_id;sensor_type;location;lat;lon;timestamp;P1;P2;P0
45312;PMS7003;68267;51.540;5.854;2023-08-06T00:09:39;0.72;3.93;3.71
45312;PMS7003;68267;51.540;5.854;2023-08-06T00:22:59;0.96;4.15;3.82
45312;PMS7003;68267;51.540;5.854;2023-08-06T00:36:18;0.72;3.93;3.71
45312;PMS7003;68267;51.540;5.854;2023-08-06T00:49:38;1.2;4.37;3.93
45312;PMS7003;68267;51.540;5.854;2023-08-06T01:02:58;1.2;4.37;4.15
45312;PMS7003;68267;51.540;5.854;2023-08-06T01:16:18;2.16;5.24;4.91
45312;PMS7003;68267;51.540;5.854;2023-08-06T01:29:37;4.33;5.24;4.7
45312;PMS7003;68267;51.540;5.854;2023-08-06T01:42:57;1.92;5.02;4.59
45312;PMS7003;68267;51.540;5.854;2023-08-06T01:56:17;0.72;3.93;3.71
45312;PMS7003;68267;51.540;5.854;2023-08-06T02:09:36;1.2;4.37;4.04
45312;PMS7003;68267;51.540;5.854;2023-08-06T02:22:56;1.08;4.26;3.82
45312;PMS7003;68267;51.540;5.854;2023-08-06T02:36:16;0.36;3.61;3.5
45312;PMS7003;68267;51.540;5.854;2023-08-06T02:49:36;0.6;3.82;3.71
45312;PMS7003;68267;51.540;5.854;2023-08-06T03:02:55;1.08;4.26;3.71
45312;PMS7003;68267;51.540;5.854;2023-08-06T03:16:15;0.48;3.71;3.5
45312;PMS7003;68267;51.540;5.854;2023-08-06T03:29:35;0.48;3.71;3.61
45312;PMS7003;68267;51.540;5.854;2023-08-06T03:42:55;0.48;3.71;3.71
45312;PMS7003;68267;51.540;5.854;2023-08-06T03:56:15;1.2;4.37;3.93
45312;PMS7003;68267;51.540;5.854;2023-08-06T04:09:34;0.72;3.93;3.82
45312;PMS7003;68267;51.540;5.854;2023-08-06T04:22:54;1.68;4.8;4.37
45312;PMS7003;68267;51.540;5.854;2023-08-06T04:36:14;2.04;5.13;4.26
45312;PMS7003;68267;51.540;5.854;2023-08-06T04:49:34;4.21;5.35;5.13
45312;PMS7003;68267;51.540;5.854;2023-08-06T05:02:53;2.76;5.79;5.24
45312;PMS7003;68267;51.540;5.854;2023-08-06T05:16:13;3.0;6.0;5.57
45312;PMS7003;68267;51.540;5.854;2023-08-06T05:29:33;3.85;6.77;6.44
45312;PMS7003;68267;51.540;5.854;2023-08-06T05:42:53;3.24;6.22;5.9
45312;PMS7003;68267;51.540;5.854;2023-08-06T05:56:12;5.05;7.86;7.2
45312;PMS7003;68267;51.540;5.854;2023-08-06T06:09:32;6.97;9.6;9.06
45312;PMS7003;68267;51.540;5.854;2023-08-06T06:22:52;7.21;9.82;8.73
45312;PMS7003;68267;51.540;5.854;2023-08-06T06:36:12;6.13;8.84;8.73
45312;PMS7003;68267;51.540;5.854;2023-08-06T06:49:31;10.93;13.2;12.87
45312;PMS7003;68267;51.540;5.854;2023-08-06T07:02:51;8.89;11.35;11.02
45312;PMS7003;68267;51.540;5.854;2023-08-06T07:16:11;7.81;10.36;9.38
45312;PMS7003;68267;51.540;5.854;2023-08-06T07:29:31;7.81;10.36;9.6
45312;PMS7003;68267;51.540;5.854;2023-08-06T07:42:51;9.01;8.95;8.62
45312;PMS7003;68267;51.540;5.854;2023-08-06T07:56:10;6.85;9.49;8.95
45312;PMS7003;68267;51.540;5.854;2023-08-06T08:09:30;7.21;9.82;9.38
45312;PMS7003;68267;51.540;5.854;2023-08-06T08:22:50;11.17;13.42;12.54
45312;PMS7003;68267;51.540;5.854;2023-08-06T08:36:10;11.41;13.63;12.98
45312;PMS7003;68267;51.540;5.854;2023-08-06T08:49:29;5.17;1.64;1.64
45312;PMS7003;68267;51.540;5.854;2023-08-06T09:02:49;2.64;5.68;5.46
45312;PMS7003;68267;51.540;5.854;2023-08-06T09:16:09;3.85;6.77;6.44
45312;PMS7003;68267;51.540;5.854;2023-08-06T09:29:28;5.65;8.4;7.86
45312;PMS7003;68267;51.540;5.854;2023-08-06T09:42:48;8.65;11.13;10.8
45312;PMS7003;68267;51.540;5.854;2023-08-06T09:56:08;6.61;9.27;8.73
45312;PMS7003;68267;51.540;5.854;2023-08-06T10:09:27;5.65;8.4;8.18
45312;PMS7003;68267;51.540;5.854;2023-08-06T10:22:47;3.0;6.0;5.35
45312;PMS7003;68267;51.540;5.854;2023-08-06T10:36:07;9.73;7.09;5.57
45312;PMS7003;68267;51.540;5.854;2023-08-06T10:49:26;4.21;7.09;6.11
45312;PMS7003;68267;51.540;5.854;2023-08-06T11:02:46;4.09;6.99;5.57
45312;PMS7003;68267;51.540;5.854;2023-08-06T11:16:05;3.48;6.44;5.9
45312;PMS7003;68267;51.540;5.854;2023-08-06T11:29:25;4.09;6.99;5.57
45312;PMS7003;68267;51.540;5.854;2023-08-06T11:42:45;3.85;6.77;5.79
45312;PMS7003;68267;51.540;5.854;2023-08-06T11:56:04;2.76;5.79;5.24
45312;PMS7003;68267;51.540;5.854;2023-08-06T12:09:24;2.4;5.46;4.91
45312;PMS7003;68267;51.540;5.854;2023-08-06T12:22:44;1.8;4.91;4.7
45312;PMS7003;68267;51.540;5.854;2023-08-06T12:36:04;2.4;5.46;5.02
45312;PMS7003;68267;51.540;5.854;2023-08-06T12:49:23;3.6;6.55;5.46
45312;PMS7003;68267;51.540;5.854;2023-08-06T13:02:43;3.73;6.66;5.57
45312;PMS7003;68267;51.540;5.854;2023-08-06T13:16:02;2.64;5.68;5.24
45312;PMS7003;68267;51.540;5.854;2023-08-06T13:29:22;2.4;5.46;5.13
45312;PMS7003;68267;51.540;5.854;2023-08-06T13:42:42;2.52;5.57;5.13
45312;PMS7003;68267;51.540;5.854;2023-08-06T13:56:01;1.92;5.02;4.15
45312;PMS7003;68267;51.540;5.854;2023-08-06T14:09:21;0.6;3.82;3.61
45312;PMS7003;68267;51.540;5.854;2023-08-06T14:22:41;3.97;4.04;3.28
45312;PMS7003;68267;51.540;5.854;2023-08-06T14:36:01;1.8;4.91;4.15
45312;PMS7003;68267;51.540;5.854;2023-08-06T14:49:20;1.8;4.91;4.26
45312;PMS7003;68267;51.540;5.854;2023-08-06T15:02:40;6.01;4.91;4.15
45312;PMS7003;68267;51.540;5.854;2023-08-06T15:16:00;2.76;5.79;4.8
45312;PMS7003;68267;51.540;5.854;2023-08-06T15:29:20;13.21;4.8;4.37
45312;PMS7003;68267;51.540;5.854;2023-08-06T15:42:39;3.73;6.66;5.79
45312;PMS7003;68267;51.540;5.854;2023-08-06T15:55:59;1.56;4.7;3.61
45312;PMS7003;68267;51.540;5.854;2023-08-06T16:09:19;3.12;3.93;3.39
45312;PMS7003;68267;51.540;5.854;2023-08-06T16:22:39;0.01;2.95;2.08
45312;PMS7003;68267;51.540;5.854;2023-08-06T16:35:58;0.01;3.06;1.64
45312;PMS7003;68267;51.540;5.854;2023-08-06T16:49:18;0.01;3.06;1.54
45312;PMS7003;68267;51.540;5.854;2023-08-06T17:02:38;7.69;2.41;1.32
45312;PMS7003;68267;51.540;5.854;2023-08-06T17:15:58;0.01;2.41;1.54
45312;PMS7003;68267;51.540;5.854;2023-08-06T17:29:17;10.09;2.19;1.54
45312;PMS7003;68267;51.540;5.854;2023-08-06T17:42:37;0.12;3.39;1.64
45312;PMS7003;68267;51.540;5.854;2023-08-06T17:55:57;0.12;3.39;1.86
45312;PMS7003;68267;51.540;5.854;2023-08-06T18:09:17;65.55;3.93;2.08
45312;PMS7003;68267;51.540;5.854;2023-08-06T18:22:37;0.01;3.06;1.64
45312;PMS7003;68267;51.540;5.854;2023-08-06T18:35:56;9.13;2.95;1.75
45312;PMS7003;68267;51.540;5.854;2023-08-06T18:49:16;0.36;3.61;1.75
45312;PMS7003;68267;51.540;5.854;2023-08-06T19:02:36;0.01;3.17;1.64
45312;PMS7003;68267;51.540;5.854;2023-08-06T19:15:55;5.17;3.28;1.86
45312;PMS7003;68267;51.540;5.854;2023-08-06T19:29:15;6.61;2.95;1.64
45312;PMS7003;68267;51.540;5.854;2023-08-06T19:42:35;0.36;3.61;1.64
45312;PMS7003;68267;51.540;5.854;2023-08-06T19:55:55;14.77;3.61;1.54
45312;PMS7003;68267;51.540;5.854;2023-08-06T20:09:14;25.69;2.3;1.54
45312;PMS7003;68267;51.540;5.854;2023-08-06T20:22:34;15.61;2.84;1.54
45312;PMS7003;68267;51.540;5.854;2023-08-06T20:35:54;0.0;3.28;1.64
45312;PMS7003;68267;51.540;5.854;2023-08-06T20:49:13;0.12;3.39;1.75
45312;PMS7003;68267;51.540;5.854;2023-08-06T21:02:33;0.01;2.52;1.64
45312;PMS7003;68267;51.540;5.854;2023-08-06T21:15:53;19.69;2.95;1.75
45312;PMS7003;68267;51.540;5.854;2023-08-06T21:29:13;2.4;3.61;1.86
45312;PMS7003;68267;51.540;5.854;2023-08-06T21:42:32;0.48;3.71;1.97
45312;PMS7003;68267;51.540;5.854;2023-08-06T21:55:52;7.93;3.71;2.19
45312;PMS7003;68267;51.540;5.854;2023-08-06T22:09:12;10.93;3.06;1.86
45312;PMS7003;68267;51.540;5.854;2023-08-06T22:22:32;0.0;3.28;1.86
45312;PMS7003;68267;51.540;5.854;2023-08-06T22:35:51;0.72;3.93;2.08
45312;PMS7003;68267;51.540;5.854;2023-08-06T22:49:11;9.61;4.04;2.19
45312;PMS7003;68267;51.540;5.854;2023-08-06T23:02:31;4.93;3.71;1.97
45312;PMS7003;68267;51.540;5.854;2023-08-06T23:15:51;0.96;4.15;2.08
45312;PMS7003;68267;51.540;5.854;2023-08-06T23:29:10;8.53;4.37;2.3
45312;PMS7003;68267;51.540;5.854;2023-08-06T23:42:30;0.72;3.93;2.08
45312;PMS7003;68267;51.540;5.854;2023-08-06T23:55:50;6.01;4.26;2.19
